Time;durP1;ratioP1;P1;durP2;ratioP2;P2;SDS_P1;SDS_P2;PMS_P1;PMS_P2;Temp;Humidity;BMP_temperature;BMP_pressure;BME280_temperature;BME280_humidity;BME280_pressure;Samples;Min_cycle;Max_cycle;Signal;HPM_P1;HPM_P2
2022/12/23 00:00:06;;;;;;;2.80;1.10;;;9.60;1.00;;;;;;5119352;28;20421;-43
2022/12/23 00:02:31;;;;;;;3.77;1.63;;;9.60;20.10;;;;;;5118671;28;20485;-46
2022/12/23 00:04:57;;;;;;;3.90;1.23;;;9.60;40.80;;;;;;5100921;28;20485;-42
2022/12/23 00:07:22;;;;;;;6.13;1.40;;;9.60;50.10;;;;;;5118119;28;20247;-47
2022/12/23 00:09:48;;;;;;;4.40;2.20;;;9.60;49.50;;;;;;5099809;28;20275;-44
2022/12/23 00:15:07;;;;;;;2.43;1.03;;;9.60;99.90;;;;;;5116825;28;20278;-43
2022/12/23 00:17:33;;;;;;;2.57;1.10;;;9.60;99.90;;;;;;5118301;28;20439;-42
2022/12/23 00:19:59;;;;;;;4.20;1.47;;;9.50;99.90;;;;;;5099818;28;20410;-42
2022/12/23 00:25:10;;;;;;;1.80;1.07;;;9.60;99.90;;;;;;5118254;28;20463;-46
2022/12/23 00:27:37;;;;;;;2.73;1.33;;;9.60;99.90;;;;;;5118733;28;20433;-42
2022/12/23 00:30:04;;;;;;;2.30;1.10;;;9.60;99.90;;;;;;5119079;28;20413;-42
2022/12/23 00:32:30;;;;;;;2.63;1.40;;;9.60;99.90;;;;;;5116043;28;20731;-42
2022/12/23 00:34:55;;;;;;;1.73;1.23;;;9.60;99.90;;;;;;5115267;28;20417;-43
2022/12/23 00:37:21;;;;;;;2.80;0.90;;;9.60;99.90;;;;;;5115530;28;20638;-41
2022/12/23 00:45:15;;;;;;;2.90;1.00;;;9.60;99.90;;;;;;5114731;28;20439;-44
2022/12/23 00:50:30;;;;;;;1.50;0.90;;;9.60;99.90;;;;;;5116763;28;20221;-42
2022/12/23 00:52:56;;;;;;;2.03;1.07;;;9.60;99.90;;;;;;5114519;28;20436;-43
2022/12/23 00:55:24;;;;;;;2.50;1.10;;;9.60;99.90;;;;;;5097061;28;20781;-44
2022/12/23 00:57:55;;;;;;;2.00;0.80;;;9.60;99.90;;;;;;5111434;27;20807;-42
2022/12/23 01:05:35;;;;;;;1.63;0.77;;;9.60;99.90;;;;;;5111577;28;20475;-46
2022/12/23 01:05:57;;;;;;;3.50;1.10;;;9.60;99.90;;;;;;5112080;28;20412;-43
2022/12/23 01:08:23;;;;;;;2.93;0.90;;;9.70;99.90;;;;;;5112916;28;20478;-43
2022/12/23 01:10:48;;;;;;;1.73;0.97;;;9.60;99.90;;;;;;5113789;28;20463;-44
2022/12/23 01:13:14;;;;;;;3.70;1.13;;;9.70;99.90;;;;;;5114775;28;20172;-43
2022/12/23 01:15:40;;;;;;;1.60;1.00;;;9.70;99.90;;;;;;5114830;28;20435;-45
2022/12/23 01:18:05;;;;;;;1.90;0.90;;;9.70;99.90;;;;;;5115347;28;20182;-42
2022/12/23 01:20:31;;;;;;;2.40;1.03;;;9.70;99.90;;;;;;5114721;28;20282;-42
2022/12/23 01:22:56;;;;;;;1.87;0.83;;;9.70;99.90;;;;;;5114206;28;20168;-44
2022/12/23 01:25:22;;;;;;;2.80;0.90;;;9.70;99.90;;;;;;5114571;28;20179;-41
2022/12/23 01:27:47;;;;;;;1.20;0.70;;;9.70;99.90;;;;;;5115295;28;20215;-47
2022/12/23 01:30:13;;;;;;;1.57;0.83;;;9.80;99.90;;;;;;5114933;28;20179;-45
2022/12/23 01:32:39;;;;;;;2.73;0.90;;;9.70;99.90;;;;;;5113814;28;20512;-45
2022/12/23 01:35:04;;;;;;;0.90;0.50;;;9.80;99.90;;;;;;5113543;28;20188;-43
2022/12/23 01:37:30;;;;;;;2.37;1.10;;;9.80;99.90;;;;;;5113293;28;20454;-44
2022/12/23 01:39:56;;;;;;;2.70;0.90;;;9.80;99.90;;;;;;5113742;28;20199;-42
2022/12/23 01:45:14;;;;;;;1.10;0.70;;;9.80;99.90;;;;;;5113604;28;20175;-42
2022/12/23 01:47:40;;;;;;;1.57;0.83;;;9.90;99.90;;;;;;5113910;28;20425;-45
2022/12/23 01:50:19;;;;;;;2.07;0.87;;;9.90;99.90;;;;;;5113583;28;20420;-46
2022/12/23 01:52:54;;;;;;;0.87;0.50;;;9.90;99.90;;;;;;5112276;28;20266;-43
2022/12/23 01:55:22;;;;;;;1.53;0.70;;;9.90;1.00;;;;;;5112979;28;20409;-52
2022/12/23 01:57:48;;;;;;;1.10;0.70;;;9.90;1.00;;;;;;5112280;28;20520;-42
2022/12/23 02:05:44;;;;;;;1.63;0.73;;;10.00;1.00;;;;;;5113135;28;20404;-46
2022/12/23 02:11:18;;;;;;;2.60;0.77;;;10.10;1.00;;;;;;5100665;28;20456;-42
2022/12/23 02:16:42;;;;;;;1.10;0.50;;;10.10;1.00;;;;;;5100254;28;20851;-44
2022/12/23 02:19:30;;;;;;;2.00;0.70;;;10.10;1.00;;;;;;5098894;28;20437;-43
2022/12/23 02:22:20;;;;;;;1.70;0.47;;;10.10;1.00;;;;;;5098818;28;20410;-43
2022/12/23 02:25:09;;;;;;;1.23;0.50;;;10.20;1.00;;;;;;5098357;28;20434;-43
2022/12/23 02:27:59;;;;;;;1.13;0.57;;;10.20;1.00;;;;;;5098156;28;20438;-44
2022/12/23 02:30:42;;;;;;;1.63;0.53;;;10.20;1.00;;;;;;5096359;28;20863;-42
2022/12/23 02:33:22;;;;;;;1.00;0.40;;;10.30;1.00;;;;;;5097975;28;20491;-43
2022/12/23 02:35:54;;;;;;;0.93;0.50;;;10.30;1.00;;;;;;5098455;28;20402;-43
2022/12/23 02:38:28;;;;;;;1.00;0.50;;;10.30;1.00;;;;;;5098024;28;20430;-43
2022/12/23 02:41:07;;;;;;;1.50;0.47;;;10.40;1.00;;;;;;5097684;28;20471;-43
2022/12/23 02:43:55;;;;;;;0.97;0.50;;;10.40;1.00;;;;;;5097889;28;20433;-43
2022/12/23 02:46:30;;;;;;;0.87;0.40;;;10.40;1.00;;;;;;5099284;28;20464;-44
2022/12/23 02:49:14;;;;;;;1.97;0.67;;;10.50;1.00;;;;;;5100256;28;20422;-42
2022/12/23 02:51:45;;;;;;;1.00;0.60;;;10.50;1.00;;;;;;5099137;28;20511;-42
2022/12/23 02:54:14;;;;;;;0.80;0.30;;;10.50;1.00;;;;;;5098531;28;20686;-45
2022/12/23 02:56:43;;;;;;;0.87;0.50;;;10.50;1.00;;;;;;5098827;28;20470;-43
2022/12/23 02:59:15;;;;;;;0.90;0.37;;;10.50;1.00;;;;;;5099470;28;20430;-43
2022/12/23 03:01:42;;;;;;;1.17;0.50;;;10.60;1.00;;;;;;5099573;28;20693;-45
2022/12/23 03:04:07;;;;;;;0.70;0.30;;;10.60;1.00;;;;;;5097924;28;20422;-41
2022/12/23 03:06:39;;;;;;;0.93;0.30;;;10.60;1.00;;;;;;5097766;28;20414;-43
2022/12/23 03:09:05;;;;;;;0.80;0.40;;;10.60;1.00;;;;;;5098506;28;20183;-41
2022/12/23 03:11:55;;;;;;;3.00;1.17;;;10.60;1.00;;;;;;5098363;28;20410;-43
2022/12/23 03:14:32;;;;;;;0.80;0.33;;;10.60;1.00;;;;;;5098334;28;20456;-43
2022/12/23 03:17:08;;;;;;;0.80;0.40;;;10.70;1.00;;;;;;5098203;28;20503;-42
2022/12/23 03:19:51;;;;;;;0.70;0.27;;;10.70;1.00;;;;;;5096001;28;20419;-41
2022/12/23 03:22:47;;;;;;;1.10;0.47;;;10.60;1.00;;;;;;5097142;28;20406;-40
2022/12/23 03:25:20;;;;;;;0.73;0.30;;;10.70;1.00;;;;;;5088162;28;20419;-42
2022/12/23 03:27:51;;;;;;;0.70;0.30;;;10.70;1.00;;;;;;5097834;28;20521;-42
2022/12/23 03:30:19;;;;;;;0.70;0.30;;;10.70;1.00;;;;;;5098711;28;20410;-41
2022/12/23 03:32:53;;;;;;;1.17;0.50;;;10.70;1.00;;;;;;5098101;28;20724;-43
2022/12/23 03:35:34;;;;;;;0.60;0.20;;;10.70;1.00;;;;;;5099211;28;20813;-42
2022/12/23 03:38:01;;;;;;;0.90;0.40;;;10.80;1.00;;;;;;5095938;28;20443;-41
2022/12/23 03:40:45;;;;;;;0.90;0.30;;;10.80;1.00;;;;;;5097576;28;20718;-41
2022/12/23 03:43:16;;;;;;;0.83;0.40;;;10.80;1.00;;;;;;5095748;28;20824;-40
2022/12/23 03:45:46;;;;;;;0.80;0.30;;;10.80;1.00;;;;;;5096145;28;20407;-43
2022/12/23 03:48:25;;;;;;;0.80;0.40;;;10.80;1.00;;;;;;5097005;28;20434;-41
2022/12/23 03:50:55;;;;;;;1.57;0.30;;;10.80;1.00;;;;;;5096764;28;20812;-41
2022/12/23 03:53:43;;;;;;;1.03;0.40;;;10.80;1.00;;;;;;5097552;28;20418;-41
2022/12/23 03:56:13;;;;;;;1.53;0.60;;;10.80;1.00;;;;;;5097288;28;20478;-41
2022/12/23 03:59:16;;;;;;;2.00;0.30;;;10.80;1.00;;;;;;5096331;28;20446;-41
2022/12/23 04:02:00;;;;;;;0.90;0.40;;;10.90;1.00;;;;;;5080907;28;20460;-43
2022/12/23 04:04:31;;;;;;;1.33;0.40;;;10.90;1.00;;;;;;5096997;28;20512;-45
2022/12/23 04:06:58;;;;;;;1.00;0.40;;;10.90;1.00;;;;;;5096383;28;20407;-43
2022/12/23 04:09:26;;;;;;;0.87;0.43;;;10.80;1.00;;;;;;5096860;28;20533;-42
2022/12/23 04:11:52;;;;;;;1.17;0.37;;;10.80;1.00;;;;;;5095533;28;20551;-42
2022/12/23 04:14:19;;;;;;;0.70;0.40;;;10.90;1.00;;;;;;5096476;28;20465;-41
2022/12/23 04:16:45;;;;;;;1.10;0.50;;;10.90;1.00;;;;;;5096965;28;20228;-41
2022/12/23 04:19:11;;;;;;;1.30;0.47;;;10.90;1.00;;;;;;5097321;28;20525;-41
2022/12/23 04:21:37;;;;;;;0.70;0.40;;;10.90;1.00;;;;;;5097606;28;20783;-42
2022/12/23 04:24:03;;;;;;;1.37;0.50;;;10.90;1.00;;;;;;5095818;28;20187;-42
2022/12/23 04:26:28;;;;;;;0.70;0.30;;;10.90;1.00;;;;;;5095531;28;20897;-42
2022/12/23 04:28:54;;;;;;;0.70;0.30;;;10.90;1.00;;;;;;5096123;28;20185;-45
2022/12/23 04:31:19;;;;;;;1.00;0.50;;;10.90;1.00;;;;;;5095981;28;20231;-44
2022/12/23 04:33:45;;;;;;;0.90;0.40;;;10.90;1.00;;;;;;5097101;28;20189;-42
2022/12/23 04:36:11;;;;;;;1.10;0.50;;;10.90;1.00;;;;;;5096802;28;20211;-44
2022/12/23 04:38:36;;;;;;;1.53;0.40;;;10.80;1.00;;;;;;5097895;28;20553;-42
2022/12/23 04:41:02;;;;;;;1.70;0.43;;;10.90;1.00;;;;;;5097023;28;20172;-42
2022/12/23 04:43:27;;;;;;;0.80;0.47;;;10.90;1.00;;;;;;5094321;28;20218;-41
2022/12/23 04:45:53;;;;;;;0.80;0.50;;;10.80;1.00;;;;;;5094263;28;20427;-45
2022/12/23 04:48:20;;;;;;;0.90;0.60;;;10.80;1.00;;;;;;5093053;28;20184;-45
2022/12/23 04:50:45;;;;;;;0.70;0.30;;;10.90;99.90;;;;;;5092025;28;20618;-45
2022/12/23 04:53:11;;;;;;;0.80;0.40;;;10.90;99.90;;;;;;5094039;28;20533;-43
2022/12/23 04:55:36;;;;;;;0.77;0.40;;;10.90;99.90;;;;;;5094470;28;20249;-42
2022/12/23 04:58:02;;;;;;;1.00;0.43;;;10.90;99.90;;;;;;5094920;28;20181;-42
2022/12/23 05:00:28;;;;;;;0.90;0.40;;;10.90;1.00;;;;;;5096514;28;20182;-46
2022/12/23 05:02:53;;;;;;;0.77;0.40;;;10.80;1.00;;;;;;5096079;28;20241;-42
2022/12/23 05:05:19;;;;;;;0.90;0.60;;;10.90;99.90;;;;;;5095979;28;20505;-43
2022/12/23 05:07:47;;;;;;;1.10;0.50;;;10.80;99.90;;;;;;5096629;28;20275;-43
2022/12/23 05:10:12;;;;;;;0.90;0.60;;;10.90;99.90;;;;;;5097259;28;20575;-42
2022/12/23 05:12:38;;;;;;;2.40;1.13;;;10.80;99.90;;;;;;5095981;28;20424;-42
2022/12/23 05:15:04;;;;;;;1.70;1.40;;;10.90;99.90;;;;;;5097312;28;20176;-42
2022/12/23 05:17:30;;;;;;;1.80;1.50;;;10.90;99.90;;;;;;5097216;28;20200;-41
2022/12/23 05:19:55;;;;;;;1.53;1.17;;;10.90;99.90;;;;;;5096704;28;20469;-44
2022/12/23 05:22:21;;;;;;;1.50;0.83;;;10.90;99.90;;;;;;5097785;28;20242;-42
2022/12/23 05:24:46;;;;;;;1.50;0.80;;;10.90;1.00;;;;;;5096366;28;20180;-43
2022/12/23 05:27:12;;;;;;;1.27;0.90;;;10.90;1.00;;;;;;5077523;28;20179;-43
2022/12/23 05:29:37;;;;;;;1.37;1.00;;;10.90;1.00;;;;;;5093644;28;20189;-45
2022/12/23 05:32:03;;;;;;;1.30;0.90;;;10.90;1.00;;;;;;5093990;28;20200;-42
2022/12/23 05:34:29;;;;;;;1.00;0.73;;;10.90;99.90;;;;;;5094809;28;20555;-42
2022/12/23 05:36:55;;;;;;;1.10;0.73;;;10.90;99.90;;;;;;5094578;28;20466;-43
2022/12/23 05:39:20;;;;;;;1.20;0.70;;;10.90;99.90;;;;;;5093733;28;20244;-42
2022/12/23 05:41:46;;;;;;;1.00;0.63;;;10.90;99.90;;;;;;5094533;28;20682;-42
2022/12/23 05:44:11;;;;;;;0.90;0.70;;;10.90;99.90;;;;;;5097240;28;20230;-42
2022/12/23 05:46:37;;;;;;;0.87;0.50;;;10.90;99.90;;;;;;5097806;28;20215;-42
2022/12/23 05:49:03;;;;;;;0.90;0.57;;;10.90;99.90;;;;;;5099265;28;20180;-40
2022/12/23 05:51:28;;;;;;;1.00;0.60;;;10.90;99.90;;;;;;5098204;28;20330;-43
2022/12/23 05:53:54;;;;;;;5.27;1.70;;;10.90;99.90;;;;;;5096145;28;20336;-44
2022/12/23 05:56:19;;;;;;;6.60;1.27;;;11.40;1.00;;;;;;5097246;28;20240;-45
2022/12/23 05:58:45;;;;;;;6.70;2.20;;;11.80;1.00;;;;;;5096706;28;20188;-45
2022/12/23 06:01:10;;;;;;;5.03;1.03;;;12.40;1.00;;;;;;5094921;28;20857;-44
2022/12/23 06:03:36;;;;;;;3.03;1.20;;;12.80;1.00;;;;;;5095212;28;20176;-43
2022/12/23 06:06:02;;;;;;;3.70;1.20;;;13.10;1.00;;;;;;5078607;28;20530;-44
2022/12/23 06:08:27;;;;;;;2.60;1.00;;;13.40;1.00;;;;;;5096334;28;20195;-43
2022/12/23 06:10:53;;;;;;;1.50;0.90;;;13.70;99.90;;;;;;5095717;28;20565;-40
2022/12/23 06:13:18;;;;;;;1.37;0.67;;;13.70;99.90;;;;;;5095797;28;20191;-40
2022/12/23 06:15:44;;;;;;;1.40;0.70;;;13.50;1.00;;;;;;5095469;28;20276;-42
2022/12/23 06:18:09;;;;;;;1.30;0.50;;;13.30;1.00;;;;;;5096039;28;20191;-43
2022/12/23 06:20:35;;;;;;;0.97;0.53;;;13.10;99.90;;;;;;5095188;28;20359;-46
2022/12/23 06:23:00;;;;;;;2.17;0.70;;;12.80;99.90;;;;;;5095857;28;20467;-42
2022/12/23 06:25:26;;;;;;;1.03;0.70;;;12.60;99.90;;;;;;5096076;28;20432;-43
2022/12/23 06:27:52;;;;;;;1.73;0.90;;;12.50;99.90;;;;;;5093465;28;20176;-42
2022/12/23 06:30:17;;;;;;;2.73;1.20;;;12.30;99.90;;;;;;5095741;28;20176;-44
2022/12/23 06:32:43;;;;;;;1.60;1.00;;;12.20;1.00;;;;;;5095279;28;20249;-44
2022/12/23 06:35:08;;;;;;;3.10;1.23;;;12.00;1.00;;;;;;5095313;28;20210;-42
2022/12/23 06:37:34;;;;;;;2.67;1.20;;;12.00;1.00;;;;;;5096130;28;20235;-43
2022/12/23 06:40:00;;;;;;;2.40;1.23;;;11.90;1.00;;;;;;5094881;28;20188;-43
2022/12/23 06:42:26;;;;;;;1.50;0.97;;;11.80;1.00;;;;;;5097126;28;20275;-43
2022/12/23 06:44:51;;;;;;;1.73;1.00;;;11.70;1.00;;;;;;5095442;28;20260;-43
2022/12/23 06:47:17;;;;;;;1.33;0.70;;;11.70;1.00;;;;;;5095376;28;20172;-42
2022/12/23 06:49:42;;;;;;;1.10;0.60;;;11.60;1.00;;;;;;5094247;28;20199;-42
2022/12/23 06:52:09;;;;;;;0.97;0.57;;;11.60;1.00;;;;;;5095585;28;20195;-41
2022/12/23 06:54:34;;;;;;;1.00;0.60;;;11.50;13.10;;;;;;5095827;28;20566;-42
2022/12/23 06:57:00;;;;;;;1.10;0.60;;;11.50;22.90;;;;;;5097873;28;20474;-44
2022/12/23 06:59:25;;;;;;;2.10;0.93;;;11.50;28.30;;;;;;5098338;28;20194;-42
2022/12/23 07:01:51;;;;;;;2.03;1.83;;;11.40;33.90;;;;;;5097613;28;20197;-43
2022/12/23 07:04:17;;;;;;;3.20;2.90;;;11.40;45.20;;;;;;5097303;28;20181;-43
2022/12/23 07:06:42;;;;;;;3.20;2.90;;;11.40;58.40;;;;;;5097555;28;20337;-43
2022/12/23 07:09:09;;;;;;;3.50;3.30;;;11.40;65.70;;;;;;5098912;28;20184;-41
2022/12/23 07:11:34;;;;;;;3.60;3.30;;;11.40;80.00;;;;;;5080638;28;20562;-45
2022/12/23 07:14:00;;;;;;;3.50;3.20;;;11.30;90.60;;;;;;5097073;28;20429;-43
2022/12/23 07:16:25;;;;;;;3.50;3.30;;;11.30;95.10;;;;;;5097223;28;20578;-42
2022/12/23 07:18:51;;;;;;;3.70;3.40;;;11.30;95.60;;;;;;5097002;28;20191;-45
2022/12/23 07:21:17;;;;;;;3.40;3.10;;;11.30;98.20;;;;;;5097098;28;20559;-42
2022/12/23 07:23:42;;;;;;;3.70;3.40;;;11.30;99.90;;;;;;5095352;28;20194;-45
2022/12/23 07:26:08;;;;;;;2.97;2.57;;;11.30;99.90;;;;;;5094114;28;20168;-42
2022/12/23 07:28:34;;;;;;;2.33;2.13;;;11.30;99.90;;;;;;5092841;28;20184;-44
2022/12/23 07:30:59;;;;;;;2.30;2.10;;;11.30;99.90;;;;;;5095194;28;20279;-44
2022/12/23 07:33:25;;;;;;;2.83;1.73;;;11.30;99.90;;;;;;5094766;28;20462;-42
2022/12/23 07:35:56;;;;;;;3.90;1.53;;;11.30;99.90;;;;;;5095720;28;20184;-43
2022/12/23 07:38:22;;;;;;;2.27;1.70;;;11.30;99.90;;;;;;5095072;28;20434;-43
2022/12/23 07:40:48;;;;;;;1.50;1.17;;;11.30;99.90;;;;;;5095179;28;20418;-44
2022/12/23 07:43:13;;;;;;;4.30;1.50;;;11.30;99.90;;;;;;5095880;28;20177;-41
2022/12/23 07:45:39;;;;;;;1.10;1.00;;;11.40;99.90;;;;;;5096530;28;20414;-43
2022/12/23 07:48:05;;;;;;;2.07;1.27;;;11.40;99.90;;;;;;5093424;28;20184;-42
2022/12/23 07:50:30;;;;;;;1.80;1.37;;;11.40;99.90;;;;;;5095253;28;20188;-41
2022/12/23 07:52:56;;;;;;;1.30;1.20;;;11.40;99.90;;;;;;5094159;28;20189;-41
2022/12/23 07:55:22;;;;;;;1.40;1.23;;;11.40;99.90;;;;;;5096511;28;20556;-43
2022/12/23 07:57:48;;;;;;;1.40;1.07;;;11.50;99.90;;;;;;5094543;28;20478;-44
2022/12/23 08:00:14;;;;;;;1.07;0.83;;;11.50;99.90;;;;;;5094943;28;20183;-41
2022/12/23 08:02:40;;;;;;;1.20;1.00;;;11.50;99.90;;;;;;5095782;28;20442;-42
2022/12/23 08:05:06;;;;;;;1.87;1.63;;;11.50;99.90;;;;;;5094829;28;20765;-44
2022/12/23 08:07:32;;;;;;;1.73;1.43;;;11.50;99.90;;;;;;5096496;28;20570;-42
2022/12/23 08:09:57;;;;;;;2.73;1.73;;;11.50;99.90;;;;;;5093081;28;20822;-44
2022/12/23 08:12:24;;;;;;;2.63;1.40;;;11.60;99.90;;;;;;5095760;28;20181;-43
2022/12/23 08:14:51;;;;;;;1.83;1.43;;;11.70;99.90;;;;;;5095423;28;20212;-42
2022/12/23 08:17:20;;;;;;;1.97;1.63;;;11.70;99.90;;;;;;5096095;28;20466;-42
2022/12/23 08:19:47;;;;;;;2.60;1.53;;;11.70;89.50;;;;;;5095656;28;20426;-45
2022/12/23 08:22:12;;;;;;;1.83;1.03;;;11.70;73.70;;;;;;5094613;28;20443;-41
2022/12/23 08:24:38;;;;;;;1.93;1.13;;;11.80;73.40;;;;;;5096342;28;20462;-45
2022/12/23 08:27:04;;;;;;;1.70;1.10;;;11.80;71.60;;;;;;5096455;28;20172;-44
2022/12/23 08:29:29;;;;;;;1.77;1.00;;;11.80;72.60;;;;;;5095282;28;20253;-43
2022/12/23 08:31:55;;;;;;;1.67;1.07;;;11.90;45.30;;;;;;5096020;28;20172;-42
2022/12/23 08:34:21;;;;;;;1.50;1.17;;;11.80;20.70;;;;;;5094481;28;20188;-43
2022/12/23 08:36:47;;;;;;;1.63;1.00;;;11.90;14.50;;;;;;5094826;28;20216;-41
2022/12/23 08:39:12;;;;;;;1.97;0.93;;;11.90;10.40;;;;;;5094139;28;20430;-42
2022/12/23 08:41:42;;;;;;;1.10;0.70;;;12.10;6.00;;;;;;5094477;28;20696;-43
2022/12/23 08:44:08;;;;;;;1.33;1.00;;;12.10;1.00;;;;;;5093640;28;20314;-42
2022/12/23 08:46:34;;;;;;;1.57;1.10;;;12.20;1.00;;;;;;5094155;28;20708;-43
2022/12/23 08:49:00;;;;;;;1.80;1.27;;;12.20;1.00;;;;;;5092833;28;20490;-42
2022/12/23 08:51:27;;;;;;;1.10;0.73;;;12.30;1.00;;;;;;5093733;28;20988;-43
2022/12/23 08:53:57;;;;;;;1.17;0.90;;;12.30;1.00;;;;;;5092644;28;20438;-42
2022/12/23 08:56:25;;;;;;;1.20;0.90;;;12.40;1.00;;;;;;5092570;28;20483;-43
2022/12/23 08:58:52;;;;;;;1.90;1.13;;;12.50;1.00;;;;;;5092713;28;20491;-45
2022/12/23 09:01:20;;;;;;;2.50;1.00;;;12.50;1.00;;;;;;5093751;28;20918;-43
2022/12/23 09:03:45;;;;;;;1.43;1.07;;;12.50;1.00;;;;;;5094298;28;20859;-44
2022/12/23 09:06:17;;;;;;;1.60;1.10;;;12.50;1.00;;;;;;5093586;28;20422;-46
2022/12/23 09:08:43;;;;;;;1.80;1.20;;;12.50;1.00;;;;;;5094259;28;20337;-41
2022/12/23 09:11:10;;;;;;;1.50;1.30;;;12.50;1.00;;;;;;5093718;28;20513;-45
2022/12/23 09:13:37;;;;;;;1.53;1.33;;;12.50;1.00;;;;;;5094556;28;20286;-44
2022/12/23 09:16:04;;;;;;;1.50;1.30;;;12.50;1.00;;;;;;5095132;28;20449;-42
2022/12/23 09:18:32;;;;;;;1.73;1.27;;;12.50;1.00;;;;;;5097709;28;20414;-43
2022/12/23 09:21:02;;;;;;;2.20;1.40;;;12.50;1.00;;;;;;5099241;28;20454;-44
2022/12/23 09:23:28;;;;;;;1.30;1.10;;;12.50;1.00;;;;;;5096435;28;20423;-43
2022/12/23 09:25:54;;;;;;;1.77;1.20;;;12.50;1.00;;;;;;5098361;28;20571;-42
2022/12/23 09:28:20;;;;;;;1.40;1.20;;;12.50;1.00;;;;;;5096904;28;20181;-41
2022/12/23 09:30:45;;;;;;;2.10;1.03;;;12.50;1.00;;;;;;5095841;28;20414;-43
2022/12/23 09:33:11;;;;;;;1.40;1.00;;;12.50;1.00;;;;;;5096347;28;20326;-42
2022/12/23 09:35:37;;;;;;;1.67;1.00;;;12.50;1.00;;;;;;5098166;28;20566;-41
2022/12/23 09:38:02;;;;;;;1.50;1.10;;;12.50;1.00;;;;;;5098799;28;20470;-41
2022/12/23 09:40:29;;;;;;;1.70;1.00;;;12.40;1.00;;;;;;5099271;28;20186;-45
2022/12/23 09:43:03;;;;;;;1.67;1.43;;;12.50;1.00;;;;;;5097648;28;20550;-42
2022/12/23 09:45:38;;;;;;;1.83;1.20;;;12.40;1.00;;;;;;5096717;28;20513;-41
2022/12/23 09:48:10;;;;;;;1.40;1.20;;;12.40;1.00;;;;;;5095815;28;20480;-44
2022/12/23 09:50:36;;;;;;;1.30;1.20;;;12.40;1.00;;;;;;5096300;28;20430;-41
2022/12/23 09:53:07;;;;;;;1.93;1.30;;;12.40;1.00;;;;;;5096281;28;20425;-42
2022/12/23 09:55:38;;;;;;;1.27;0.90;;;12.40;1.00;;;;;;5093248;28;20184;-42
2022/12/23 09:58:19;;;;;;;1.47;1.10;;;12.40;1.00;;;;;;5093342;28;20477;-42
2022/12/23 10:01:14;;;;;;;1.60;1.10;;;12.40;1.00;;;;;;5093606;28;20545;-43
2022/12/23 10:04:07;;;;;;;1.80;0.93;;;12.40;3.10;;;;;;5052897;28;20484;-42
2022/12/23 10:06:33;;;;;;;1.20;0.90;;;12.40;6.60;;;;;;5094861;28;20414;-42
2022/12/23 10:09:04;;;;;;;1.00;0.70;;;12.50;14.30;;;;;;5095600;28;20477;-43
2022/12/23 10:11:39;;;;;;;0.90;0.60;;;12.50;14.00;;;;;;5095169;28;20491;-43
2022/12/23 10:14:24;;;;;;;1.00;0.73;;;12.60;3.70;;;;;;5096919;28;20426;-43
2022/12/23 10:16:59;;;;;;;1.00;0.70;;;12.60;1.00;;;;;;5095192;28;21138;-42
2022/12/23 10:19:40;;;;;;;0.90;0.50;;;12.70;1.00;;;;;;5095085;28;20429;-43
2022/12/23 10:22:24;;;;;;;0.90;0.50;;;12.70;1.00;;;;;;5095275;28;20457;-44
2022/12/23 10:24:50;;;;;;;1.00;0.60;;;12.80;1.00;;;;;;5094478;28;20565;-42
2022/12/23 10:27:30;;;;;;;1.10;0.60;;;12.90;1.00;;;;;;5094489;28;20898;-42
2022/12/23 10:30:01;;;;;;;1.30;0.80;;;12.90;1.00;;;;;;5094683;28;20433;-41
2022/12/23 10:32:33;;;;;;;1.53;0.90;;;13.00;1.00;;;;;;5097582;28;20427;-42
2022/12/23 10:35:46;;;;;;;1.10;0.70;;;13.00;1.00;;;;;;5095567;28;20423;-43
2022/12/23 10:38:34;;;;;;;1.37;0.60;;;13.00;1.00;;;;;;5087215;28;20481;-43
2022/12/23 10:41:11;;;;;;;1.77;0.90;;;13.10;1.00;;;;;;5091663;28;20472;-43
2022/12/23 10:44:16;;;;;;;1.63;1.10;;;13.10;1.00;;;;;;5092932;28;20467;-43
2022/12/23 10:46:41;;;;;;;1.40;1.10;;;13.20;1.00;;;;;;5094145;28;20700;-44
2022/12/23 10:49:16;;;;;;;2.50;1.07;;;13.20;1.00;;;;;;5095444;28;20425;-42
2022/12/23 10:51:51;;;;;;;2.10;1.10;;;13.20;1.00;;;;;;5095880;28;20172;-42
2022/12/23 10:54:31;;;;;;;1.27;1.00;;;13.30;1.00;;;;;;5096141;28;20478;-42
2022/12/23 10:56:57;;;;;;;1.30;0.93;;;13.30;1.00;;;;;;5096416;28;20482;-42
2022/12/23 10:59:28;;;;;;;1.50;1.00;;;13.40;1.00;;;;;;5095824;28;20845;-42
2022/12/23 11:02:04;;;;;;;1.10;0.80;;;13.40;99.90;;;;;;5077530;28;21077;-42
2022/12/23 11:04:34;;;;;;;2.00;1.17;;;13.50;99.90;;;;;;5094026;28;20800;-44
2022/12/23 11:07:01;;;;;;;1.10;0.80;;;13.60;99.90;;;;;;5094689;28;20824;-46
2022/12/23 11:09:37;;;;;;;1.40;0.97;;;13.60;99.90;;;;;;5093877;28;20430;-42
2022/12/23 11:12:05;;;;;;;2.03;1.40;;;13.70;99.90;;;;;;5094822;28;20414;-43
2022/12/23 11:14:55;;;;;;;2.07;1.07;;;13.70;99.90;;;;;;5092188;28;20943;-41
2022/12/23 11:17:26;;;;;;;2.50;1.00;;;13.70;99.90;;;;;;5094397;28;20630;-41
2022/12/23 11:20:14;;;;;;;4.20;0.80;;;13.70;77.30;;;;;;5095968;28;20449;-40
2022/12/23 11:22:50;;;;;;;1.93;0.90;;;13.70;99.90;;;;;;5095450;28;20489;-42
2022/12/23 11:25:35;;;;;;;1.50;0.87;;;13.70;99.90;;;;;;5094385;28;20433;-43
2022/12/23 11:28:05;;;;;;;1.20;0.77;;;13.70;99.90;;;;;;5095084;28;20421;-42
2022/12/23 11:30:45;;;;;;;1.87;0.70;;;13.70;99.90;;;;;;5097154;28;20435;-42
2022/12/23 11:33:23;;;;;;;1.97;1.20;;;13.80;99.90;;;;;;5094988;28;20461;-43
2022/12/23 11:36:18;;;;;;;2.80;1.10;;;13.90;99.90;;;;;;5095122;28;20481;-41
2022/12/23 11:39:13;;;;;;;1.40;0.90;;;14.00;51.00;;;;;;5081187;28;20937;-41
2022/12/23 11:41:43;;;;;;;1.60;1.17;;;14.10;1.00;;;;;;5063228;28;20411;-42
2022/12/23 11:44:18;;;;;;;2.03;1.13;;;14.10;1.00;;;;;;5092697;28;20418;-41
2022/12/23 11:46:43;;;;;;;1.27;0.77;;;14.10;1.00;;;;;;5092070;28;20441;-42
2022/12/23 11:49:15;;;;;;;1.67;0.90;;;14.10;1.00;;;;;;5086911;28;20646;-41
2022/12/23 11:51:42;;;;;;;2.20;1.10;;;14.10;1.00;;;;;;5089591;28;20212;-42
2022/12/23 11:54:15;;;;;;;1.60;0.90;;;14.20;1.00;;;;;;5090848;28;20805;-41
2022/12/23 11:56:40;;;;;;;3.93;1.30;;;14.20;1.00;;;;;;5090583;28;20474;-42
2022/12/23 11:59:15;;;;;;;1.90;1.13;;;14.20;1.00;;;;;;5087799;28;20964;-43
2022/12/23 12:01:46;;;;;;;1.70;1.00;;;14.10;1.00;;;;;;5086313;28;20255;-42
2022/12/23 12:04:19;;;;;;;1.40;0.77;;;14.10;1.00;;;;;;5086351;28;20442;-43
2022/12/23 12:06:45;;;;;;;1.37;1.13;;;14.00;1.00;;;;;;5088303;28;20513;-41
2022/12/23 12:09:12;;;;;;;2.07;0.93;;;14.00;1.00;;;;;;5091381;28;20582;-41
2022/12/23 12:11:51;;;;;;;1.63;1.07;;;13.90;24.50;;;;;;5093346;28;20422;-42
2022/12/23 12:14:26;;;;;;;1.43;0.80;;;13.90;99.90;;;;;;5093268;28;20483;-43
2022/12/23 12:17:20;;;;;;;1.10;0.70;;;13.90;98.80;;;;;;5089588;28;20458;-44
2022/12/23 12:20:01;;;;;;;1.30;0.87;;;13.80;99.90;;;;;;5058358;28;20541;-42
2022/12/23 12:22:58;;;;;;;1.10;0.70;;;13.80;73.30;;;;;;5090034;28;20820;-43
2022/12/23 12:25:39;;;;;;;5.53;1.27;;;13.80;99.90;;;;;;5087940;28;20585;-44
2022/12/23 12:28:09;;;;;;;3.30;0.90;;;13.70;99.90;;;;;;5090467;28;20406;-42
2022/12/23 12:30:43;;;;;;;2.13;1.03;;;13.70;99.90;;;;;;5090618;28;20441;-41
2022/12/23 12:33:48;;;;;;;2.93;1.07;;;13.70;99.90;;;;;;5092370;28;20452;-42
2022/12/23 12:36:35;;;;;;;1.50;1.00;;;13.80;99.90;;;;;;5075420;28;20458;-42
2022/12/23 12:39:00;;;;;;;1.60;1.07;;;13.80;99.90;;;;;;5095289;28;20804;-41
2022/12/23 12:41:37;;;;;;;1.10;0.80;;;13.80;99.90;;;;;;5094694;28;20421;-42
2022/12/23 12:44:29;;;;;;;1.47;1.00;;;13.90;74.50;;;;;;5092051;28;20257;-43
2022/12/23 12:47:02;;;;;;;2.13;1.53;;;13.90;25.10;;;;;;5091048;28;20742;-41
2022/12/23 12:49:39;;;;;;;2.30;2.10;;;13.90;1.00;;;;;;5091659;28;20433;-40
2022/12/23 12:52:13;;;;;;;2.13;1.20;;;13.80;11.30;;;;;;5090893;28;20410;-42
2022/12/23 12:54:49;;;;;;;1.30;0.90;;;13.80;3.90;;;;;;5089815;28;20445;-40
2022/12/23 12:57:17;;;;;;;2.03;1.00;;;13.80;16.30;;;;;;5088814;28;20880;-44
2022/12/23 12:59:44;;;;;;;1.70;0.70;;;13.80;1.00;;;;;;5091419;28;20671;-44
2022/12/23 13:02:27;;;;;;;4.40;1.13;;;14.30;99.90;;;;;;5091216;28;20828;-44
2022/12/23 13:04:56;;;;;;;5.07;1.23;;;14.80;23.10;;;;;;5091611;28;20444;-43
2022/12/23 13:07:54;;;;;;;2.10;1.17;;;15.30;99.90;;;;;;5089103;28;20513;-44
2022/12/23 13:10:28;;;;;;;4.87;1.07;;;15.70;99.90;;;;;;5088213;28;20465;-42
2022/12/23 13:12:59;;;;;;;1.70;0.90;;;16.00;1.00;;;;;;5090630;28;20910;-42
2022/12/23 13:15:39;;;;;;;1.40;1.30;;;15.90;99.90;;;;;;5090607;28;20529;-43
2022/12/23 13:18:23;;;;;;;1.63;0.83;;;15.70;1.00;;;;;;5091072;28;20449;-44
2022/12/23 13:21:06;;;;;;;1.57;1.23;;;15.50;1.00;;;;;;5092396;28;20488;-42
2022/12/23 13:23:49;;;;;;;2.20;1.10;;;15.20;1.00;;;;;;5074718;28;20415;-41
2022/12/23 13:26:36;;;;;;;1.90;1.20;;;14.90;99.90;;;;;;5091568;28;21613;-43
2022/12/23 13:29:20;;;;;;;1.80;1.30;;;14.70;1.00;;;;;;5092987;28;20449;-41
2022/12/23 13:32:03;;;;;;;2.97;1.57;;;14.50;38.80;;;;;;5093643;28;20433;-43
2022/12/23 13:35:07;;;;;;;2.73;1.30;;;14.30;99.90;;;;;;5093499;28;20677;-41
2022/12/23 13:37:47;;;;;;;2.47;1.80;;;14.20;1.00;;;;;;5089879;28;20449;-41
2022/12/23 13:40:52;;;;;;;1.30;1.10;;;14.10;99.90;;;;;;5093064;28;20828;-40
2022/12/23 13:43:21;;;;;;;1.97;1.23;;;14.00;99.90;;;;;;5091371;28;20402;-42